West Linton, Indiana
Current Conditions -  °F | °C
As of 1:55 PM on Saturday 25 Oct 2014 (Local Time) from KDCY Reporting Station
Clear Clear  
Wind Chill: 73°   Ceiling: Unl
Heat Index: 73°   Visibility: 10mi
Dew Point: 59°   Wind: 8mph
Humidity: 61%   Direction: 270°W
Pressure: 29.98"   Gusts: NA
Location:  39.0608°N, 87.1852°W
Report Text: KDCY 251755Z AUTO 27007KT 10SM CLR 23/15 A2998 RMK AO2 T02270148 10228 20145
Loading
Personal Weather Stations






























Interactive Weather Map New forecast layout! Learn more

10-Day Weather Forecast

Advertisements
Track Severe Weather on mobile